createdAt,value
2023-04-28T00:01:29.675Z,39.37
2023-04-28T00:06:31.537Z,39.86
2023-04-28T00:11:33.409Z,39.23
2023-04-28T00:16:35.327Z,38.90
2023-04-28T00:21:37.180Z,39.56
2023-04-28T00:26:38.932Z,39.09
2023-04-28T00:31:41.111Z,39.19
2023-04-28T00:36:42.948Z,39.24
2023-04-28T00:41:44.715Z,39.49
2023-04-28T00:46:46.535Z,38.66
2023-04-28T00:51:48.472Z,39.12
2023-04-28T00:56:50.636Z,39.29
2023-04-28T01:01:52.654Z,39.16
2023-04-28T01:06:55.998Z,39.37
2023-04-28T01:11:58.503Z,39.74
2023-04-28T01:17:16.510Z,39.59
2023-04-28T01:22:18.838Z,39.84
2023-04-28T01:27:23.464Z,39.63
2023-04-28T01:32:25.274Z,39.73
2023-04-28T01:37:27.063Z,39.71
2023-04-28T01:42:29.094Z,39.98
2023-04-28T01:47:31.622Z,39.88
2023-04-28T01:52:33.459Z,40.15
2023-04-28T01:57:37.102Z,40.48
2023-04-28T02:02:39.790Z,40.25
2023-04-28T02:07:41.677Z,40.22
2023-04-28T02:12:43.456Z,40.63
2023-04-28T02:17:45.357Z,40.89
2023-04-28T02:22:47.275Z,40.54
2023-04-28T02:27:49.111Z,40.60
2023-04-28T02:32:51.482Z,40.54
2023-04-28T02:37:53.276Z,40.38
2023-04-28T02:42:55.128Z,40.82
2023-04-28T02:47:56.952Z,40.64
2023-04-28T02:52:58.738Z,40.66
2023-04-28T02:58:00.713Z,41.08
2023-04-28T03:03:02.826Z,41.04
2023-04-28T03:08:05.005Z,40.36
2023-04-28T03:13:07.248Z,40.46
2023-04-28T03:18:09.657Z,40.64
2023-04-28T03:23:11.641Z,40.82
2023-04-28T03:28:13.660Z,40.60
2023-04-28T03:33:15.562Z,40.86
2023-04-28T03:38:17.839Z,41.43
2023-04-28T03:43:19.952Z,41.21
2023-04-28T03:48:41.187Z,40.97
2023-04-28T03:53:43.118Z,40.94
2023-04-28T03:58:45.553Z,40.92
2023-04-28T04:03:47.494Z,41.00
2023-04-28T04:08:49.583Z,41.06
2023-04-28T04:13:51.382Z,40.69
2023-04-28T04:18:55.560Z,41.02
2023-04-28T04:24:16.740Z,41.26
2023-04-28T04:29:19.144Z,41.13
2023-04-28T04:34:21.209Z,41.84
2023-04-28T04:39:23.052Z,41.50
2023-04-28T04:44:27.524Z,41.67
2023-04-28T04:49:29.791Z,41.36
2023-04-28T04:54:31.856Z,41.92
2023-04-28T04:59:33.741Z,41.97
2023-04-28T05:04:42.403Z,42.13
2023-04-28T05:09:45.881Z,42.46
2023-04-28T05:14:47.789Z,42.75
2023-04-28T05:19:50.846Z,43.26
2023-04-28T05:24:53.526Z,43.01
2023-04-28T05:29:55.654Z,43.27
2023-04-28T05:34:57.513Z,43.17
2023-04-28T05:39:59.351Z,43.07
2023-04-28T05:45:01.179Z,43.33
2023-04-28T05:50:03.713Z,42.73
2023-04-28T05:55:06.051Z,43.35
2023-04-28T06:00:09.514Z,42.94
2023-04-28T06:05:14.567Z,43.19
2023-04-28T06:10:17.685Z,43.41
2023-04-28T06:15:19.659Z,43.40
2023-04-28T06:20:21.829Z,43.19
2023-04-28T06:25:24.268Z,42.91
2023-04-28T06:30:26.167Z,43.32
2023-04-28T06:35:29.869Z,43.20
2023-04-28T06:40:32.083Z,43.30
2023-04-28T06:45:36.069Z,43.15
2023-04-28T06:50:38.026Z,43.43
2023-04-28T06:55:42.614Z,43.43
2023-04-28T07:00:44.597Z,43.21
2023-04-28T07:05:46.561Z,43.02
2023-04-28T07:10:48.680Z,43.22
2023-04-28T07:15:50.520Z,43.15
2023-04-28T07:20:53.050Z,42.98
2023-04-28T07:25:55.233Z,42.87
2023-04-28T07:30:57.616Z,42.87
2023-04-28T07:35:59.562Z,42.63
2023-04-28T07:41:01.968Z,42.50
2023-04-28T07:46:03.850Z,42.30
2023-04-28T07:51:05.738Z,41.98
2023-04-28T07:56:07.697Z,41.87
2023-04-28T08:01:09.504Z,41.24
2023-04-28T08:06:11.313Z,41.04
2023-04-28T08:11:13.160Z,40.84
2023-04-28T08:16:15.563Z,40.42
2023-04-28T08:21:17.780Z,40.23
2023-04-28T08:26:19.788Z,39.55
2023-04-28T08:31:21.652Z,39.08
2023-04-28T08:36:25.224Z,38.88
2023-04-28T08:41:30.083Z,38.53
2023-04-28T08:46:33.548Z,38.48
2023-04-28T08:51:43.962Z,37.95
2023-04-28T08:56:46.262Z,38.28
2023-04-28T09:01:51.133Z,37.84
2023-04-28T09:06:53.061Z,36.83
2023-04-28T09:12:02.655Z,36.17
2023-04-28T09:17:14.623Z,36.14
2023-04-28T09:22:26.119Z,35.57
2023-04-28T09:27:28.961Z,35.68
2023-04-28T09:32:31.177Z,35.66
2023-04-28T09:37:34.320Z,35.73
2023-04-28T09:43:02.397Z,35.25
2023-04-28T09:54:57.335Z,34.88
2023-04-28T09:59:59.784Z,33.65
2023-04-28T10:05:02.308Z,33.02
2023-04-28T10:10:05.574Z,33.12
2023-04-28T10:15:09.710Z,33.15
2023-04-28T10:20:12.010Z,33.65
2023-04-28T10:25:32.641Z,34.23
2023-04-28T10:30:35.299Z,34.87
2023-04-28T10:35:37.627Z,35.55
2023-04-28T10:40:45.103Z,36.25
2023-04-28T10:45:56.065Z,37.14
2023-04-28T10:51:04.724Z,38.24
2023-04-28T10:56:07.178Z,38.76
2023-04-28T11:01:25.183Z,39.09
2023-04-28T11:06:37.285Z,39.62
2023-04-28T11:11:40.615Z,40.21
2023-04-28T11:16:51.795Z,40.06
2023-04-28T11:21:56.669Z,39.50
2023-04-28T11:26:59.394Z,39.95
2023-04-28T11:32:01.491Z,40.80
2023-04-28T11:37:03.981Z,42.04
2023-04-28T11:42:12.081Z,42.87
2023-04-28T11:47:13.943Z,42.93
2023-04-28T11:52:15.685Z,43.10
2023-04-28T11:57:19.505Z,43.03
2023-04-28T12:02:29.535Z,43.08
2023-04-28T12:07:42.483Z,43.16
2023-04-28T12:12:51.856Z,43.40
2023-04-28T12:17:54.833Z,42.55
2023-04-28T12:22:57.137Z,43.24
2023-04-28T12:28:08.470Z,43.21
2023-04-28T12:33:27.599Z,43.28
2023-04-28T12:38:30.060Z,43.53
2023-04-28T12:43:32.207Z,44.17
2023-04-28T12:48:34.988Z,44.25
2023-04-28T12:53:36.778Z,44.67
2023-04-28T12:58:38.602Z,44.85
2023-04-28T13:03:40.595Z,44.97
2023-04-28T13:08:43.094Z,45.08
2023-04-28T13:13:45.290Z,44.92
2023-04-28T13:18:49.040Z,45.16
2023-04-28T13:23:50.989Z,45.18
2023-04-28T13:28:52.930Z,45.44
2023-04-28T13:33:54.775Z,45.61
2023-04-28T13:38:56.768Z,45.98
2023-04-28T13:43:58.727Z,46.02
2023-04-28T13:49:00.573Z,46.07
2023-04-28T13:54:08.275Z,46.28
2023-04-28T13:59:10.127Z,46.17
2023-04-28T14:04:11.978Z,46.51
2023-04-28T14:09:14.145Z,46.35
2023-04-28T14:14:16.054Z,46.58
2023-04-28T14:19:18.707Z,46.54
2023-04-28T14:24:20.573Z,46.71
2023-04-28T14:29:22.372Z,46.60
2023-04-28T14:34:24.819Z,46.49
2023-04-28T14:39:26.615Z,46.48
2023-04-28T14:44:28.487Z,46.06
2023-04-28T14:49:30.802Z,45.95
2023-04-28T14:54:32.829Z,45.62
2023-04-28T14:59:35.647Z,45.63
2023-04-28T15:04:39.000Z,45.44
2023-04-28T15:09:40.930Z,45.29
2023-04-28T15:14:42.705Z,45.41
2023-04-28T15:19:44.560Z,45.37
2023-04-28T15:24:46.663Z,45.36
2023-04-28T15:29:48.689Z,45.33
2023-04-28T15:34:51.158Z,45.20
2023-04-28T15:39:53.192Z,45.42
2023-04-28T15:44:55.007Z,45.00
2023-04-28T15:50:01.222Z,45.20
2023-04-28T15:55:03.086Z,45.04
2023-04-28T16:00:06.853Z,45.08
2023-04-28T16:05:11.804Z,44.87
2023-04-28T16:10:16.109Z,44.78
2023-04-28T16:15:18.383Z,44.73
2023-04-28T16:20:20.166Z,44.66
2023-04-28T16:25:22.280Z,44.72
2023-04-28T16:30:24.276Z,44.96
2023-04-28T16:35:26.537Z,45.00
2023-04-28T16:40:28.897Z,44.96
2023-04-28T16:45:30.693Z,45.23
2023-04-28T16:50:33.128Z,44.81
2023-04-28T16:55:36.684Z,45.29
2023-04-28T17:00:39.541Z,45.30
2023-04-28T17:05:41.583Z,45.75
2023-04-28T17:10:43.398Z,45.60
2023-04-28T17:15:45.303Z,45.53
2023-04-28T17:20:48.202Z,45.74
2023-04-28T17:25:50.044Z,45.81
2023-04-28T17:30:53.002Z,46.27
2023-04-28T17:35:55.259Z,46.16
2023-04-28T17:40:57.393Z,46.40
2023-04-28T17:45:59.252Z,46.36
2023-04-28T17:51:01.296Z,46.51
2023-04-28T17:56:03.260Z,46.15
2023-04-28T18:01:06.719Z,46.72
2023-04-28T18:06:08.973Z,46.80
2023-04-28T18:11:11.232Z,46.89
2023-04-28T18:16:15.074Z,47.06
2023-04-28T18:21:17.093Z,46.75
2023-04-28T18:26:19.149Z,46.90
2023-04-28T18:31:21.257Z,47.26
2023-04-28T18:36:23.641Z,47.12
2023-04-28T18:41:25.464Z,47.04
2023-04-28T18:46:29.442Z,47.35
2023-04-28T18:51:31.404Z,47.32
2023-04-28T18:56:33.392Z,47.08
2023-04-28T19:01:35.500Z,47.51
2023-04-28T19:06:37.373Z,47.39
2023-04-28T19:11:39.253Z,47.60
2023-04-28T19:16:41.198Z,47.91
2023-04-28T19:21:44.614Z,47.80
2023-04-28T19:26:46.437Z,48.42
2023-04-28T19:31:49.084Z,48.35
2023-04-28T19:36:51.296Z,48.54
2023-04-28T19:41:54.589Z,48.42
2023-04-28T19:46:56.418Z,48.01
2023-04-28T19:51:58.567Z,47.97
2023-04-28T19:57:01.853Z,48.33
2023-04-28T20:02:07.817Z,48.22
2023-04-28T20:07:10.572Z,48.60
2023-04-28T20:12:12.563Z,49.25
2023-04-28T20:17:16.294Z,49.41
2023-04-28T20:22:18.163Z,49.70
2023-04-28T20:27:20.058Z,49.97
2023-04-28T20:32:23.640Z,49.43
2023-04-28T20:37:26.486Z,49.17
2023-04-28T20:42:28.821Z,49.34
2023-04-28T20:47:31.102Z,49.30
2023-04-28T20:52:33.606Z,49.59
2023-04-28T20:57:36.548Z,49.36
2023-04-28T21:02:41.712Z,49.22
2023-04-28T21:07:44.297Z,49.34
2023-04-28T21:12:46.724Z,49.24
2023-04-28T21:17:48.509Z,49.00
2023-04-28T21:22:50.295Z,48.83
2023-04-28T21:27:53.142Z,49.20
2023-04-28T21:32:55.521Z,49.26
2023-04-28T21:37:57.524Z,48.99
2023-04-28T21:42:59.510Z,49.11
2023-04-28T21:48:01.396Z,49.17
2023-04-28T21:53:03.626Z,49.49
2023-04-28T21:58:05.692Z,49.65
2023-04-28T22:03:07.790Z,49.59
2023-04-28T22:08:09.746Z,49.80
2023-04-28T22:13:12.836Z,49.63
2023-04-28T22:18:14.607Z,49.83
2023-04-28T22:23:16.677Z,49.89
2023-04-28T22:28:18.498Z,49.85
2023-04-28T22:33:20.394Z,50.18
2023-04-28T22:38:22.218Z,50.11
2023-04-28T22:43:23.995Z,50.26
2023-04-28T22:48:25.821Z,50.12
2023-04-28T22:53:27.734Z,50.46
2023-04-28T22:58:29.578Z,50.58
2023-04-28T23:03:31.672Z,50.55
2023-04-28T23:08:35.301Z,50.83
2023-04-28T23:13:37.297Z,50.75
2023-04-28T23:18:39.692Z,51.19
2023-04-28T23:23:41.475Z,51.72
2023-04-28T23:28:43.313Z,51.49
2023-04-28T23:33:45.316Z,51.26
2023-04-28T23:38:47.324Z,51.74
2023-04-28T23:43:49.302Z,52.03
2023-04-28T23:48:51.181Z,52.23
2023-04-28T23:53:53.048Z,52.18
2023-04-28T23:58:54.837Z,52.81
